sensor_id;sensor_type;location;lat;lon;timestamp;P1;durP1;ratioP1;P2;durP2;ratioP2
48651;SDS011;34442;52.362;-1.302;2022-07-06T00:00:45;1.92;;;0.70;;
48651;SDS011;34442;52.362;-1.302;2022-07-06T00:03:11;1.50;;;0.90;;
48651;SDS011;34442;52.362;-1.302;2022-07-06T00:05:37;1.25;;;0.90;;
48651;SDS011;34442;52.362;-1.302;2022-07-06T00:08:03;2.20;;;0.70;;
48651;SDS011;34442;52.362;-1.302;2022-07-06T00:10:29;0.75;;;0.75;;
48651;SDS011;34442;52.362;-1.302;2022-07-06T00:12:55;1.55;;;0.80;;
48651;SDS011;34442;52.362;-1.302;2022-07-06T00:15:21;1.33;;;0.80;;
48651;SDS011;34442;52.362;-1.302;2022-07-06T00:17:47;1.08;;;0.95;;
48651;SDS011;34442;52.362;-1.302;2022-07-06T00:20:13;0.82;;;0.63;;
48651;SDS011;34442;52.362;-1.302;2022-07-06T00:22:39;1.00;;;0.70;;
48651;SDS011;34442;52.362;-1.302;2022-07-06T00:25:05;1.88;;;1.02;;
48651;SDS011;34442;52.362;-1.302;2022-07-06T00:27:32;1.30;;;0.80;;
48651;SDS011;34442;52.362;-1.302;2022-07-06T00:29:58;2.55;;;1.10;;
48651;SDS011;34442;52.362;-1.302;2022-07-06T00:32:24;1.25;;;0.80;;
48651;SDS011;34442;52.362;-1.302;2022-07-06T00:34:51;1.25;;;0.73;;
48651;SDS011;34442;52.362;-1.302;2022-07-06T00:37:17;1.10;;;0.80;;
48651;SDS011;34442;52.362;-1.302;2022-07-06T00:39:42;1.25;;;0.73;;
48651;SDS011;34442;52.362;-1.302;2022-07-06T00:42:08;1.30;;;0.60;;
48651;SDS011;34442;52.362;-1.302;2022-07-06T00:44:34;1.27;;;0.93;;
48651;SDS011;34442;52.362;-1.302;2022-07-06T00:47:00;2.22;;;0.88;;
48651;SDS011;34442;52.362;-1.302;2022-07-06T00:49:27;1.70;;;1.08;;
48651;SDS011;34442;52.362;-1.302;2022-07-06T00:52:12;1.17;;;0.85;;
48651;SDS011;34442;52.362;-1.302;2022-07-06T00:54:38;1.67;;;1.02;;
48651;SDS011;34442;52.362;-1.302;2022-07-06T00:57:06;1.70;;;0.80;;
48651;SDS011;34442;52.362;-1.302;2022-07-06T00:59:33;2.03;;;1.02;;
48651;SDS011;34442;52.362;-1.302;2022-07-06T01:01:59;1.23;;;0.70;;
48651;SDS011;34442;52.362;-1.302;2022-07-06T01:04:25;0.82;;;0.75;;
48651;SDS011;34442;52.362;-1.302;2022-07-06T01:06:51;1.00;;;0.70;;
48651;SDS011;34442;52.362;-1.302;2022-07-06T01:09:18;2.28;;;1.02;;
48651;SDS011;34442;52.362;-1.302;2022-07-06T01:11:44;1.77;;;0.90;;
48651;SDS011;34442;52.362;-1.302;2022-07-06T01:14:11;0.73;;;0.73;;
48651;SDS011;34442;52.362;-1.302;2022-07-06T01:16:38;1.30;;;0.95;;
48651;SDS011;34442;52.362;-1.302;2022-07-06T01:19:04;1.23;;;0.90;;
48651;SDS011;34442;52.362;-1.302;2022-07-06T01:21:30;1.25;;;0.95;;
48651;SDS011;34442;52.362;-1.302;2022-07-06T01:23:56;0.95;;;0.80;;
48651;SDS011;34442;52.362;-1.302;2022-07-06T01:26:22;1.13;;;0.90;;
48651;SDS011;34442;52.362;-1.302;2022-07-06T01:28:49;1.67;;;0.82;;
48651;SDS011;34442;52.362;-1.302;2022-07-06T01:31:22;2.70;;;0.90;;
48651;SDS011;34442;52.362;-1.302;2022-07-06T01:33:54;1.02;;;0.80;;
48651;SDS011;34442;52.362;-1.302;2022-07-06T01:36:21;0.70;;;0.60;;
48651;SDS011;34442;52.362;-1.302;2022-07-06T01:38:51;1.40;;;0.90;;
48651;SDS011;34442;52.362;-1.302;2022-07-06T01:41:19;1.35;;;0.63;;
48651;SDS011;34442;52.362;-1.302;2022-07-06T01:43:45;1.45;;;0.90;;
48651;SDS011;34442;52.362;-1.302;2022-07-06T01:46:11;0.73;;;0.63;;
48651;SDS011;34442;52.362;-1.302;2022-07-06T01:48:38;1.30;;;0.85;;
48651;SDS011;34442;52.362;-1.302;2022-07-06T01:51:04;1.48;;;0.70;;
48651;SDS011;34442;52.362;-1.302;2022-07-06T01:53:31;0.93;;;0.70;;
48651;SDS011;34442;52.362;-1.302;2022-07-06T01:55:57;0.88;;;0.73;;
48651;SDS011;34442;52.362;-1.302;2022-07-06T01:58:23;2.08;;;0.95;;
48651;SDS011;34442;52.362;-1.302;2022-07-06T02:00:49;1.42;;;0.80;;
48651;SDS011;34442;52.362;-1.302;2022-07-06T02:03:15;1.25;;;0.90;;
48651;SDS011;34442;52.362;-1.302;2022-07-06T02:05:41;1.60;;;0.75;;
48651;SDS011;34442;52.362;-1.302;2022-07-06T02:08:07;1.08;;;0.65;;
48651;SDS011;34442;52.362;-1.302;2022-07-06T02:10:33;0.90;;;0.73;;
48651;SDS011;34442;52.362;-1.302;2022-07-06T02:13:00;0.63;;;0.60;;
48651;SDS011;34442;52.362;-1.302;2022-07-06T02:15:26;1.02;;;0.93;;
48651;SDS011;34442;52.362;-1.302;2022-07-06T02:17:52;0.93;;;0.63;;
48651;SDS011;34442;52.362;-1.302;2022-07-06T02:20:18;1.40;;;0.70;;
48651;SDS011;34442;52.362;-1.302;2022-07-06T02:22:44;0.63;;;0.60;;
48651;SDS011;34442;52.362;-1.302;2022-07-06T02:25:10;0.73;;;0.60;;
48651;SDS011;34442;52.362;-1.302;2022-07-06T02:27:36;0.60;;;0.60;;
48651;SDS011;34442;52.362;-1.302;2022-07-06T02:30:02;1.05;;;0.80;;
48651;SDS011;34442;52.362;-1.302;2022-07-06T02:32:29;0.60;;;0.60;;
48651;SDS011;34442;52.362;-1.302;2022-07-06T02:34:55;1.40;;;0.80;;
48651;SDS011;34442;52.362;-1.302;2022-07-06T02:37:21;2.33;;;1.10;;
48651;SDS011;34442;52.362;-1.302;2022-07-06T02:39:47;1.17;;;0.80;;
48651;SDS011;34442;52.362;-1.302;2022-07-06T02:42:13;0.60;;;0.60;;
48651;SDS011;34442;52.362;-1.302;2022-07-06T02:44:39;1.10;;;0.60;;
48651;SDS011;34442;52.362;-1.302;2022-07-06T02:47:05;0.95;;;0.60;;
48651;SDS011;34442;52.362;-1.302;2022-07-06T02:49:31;0.85;;;0.80;;
48651;SDS011;34442;52.362;-1.302;2022-07-06T02:51:57;1.25;;;0.70;;
48651;SDS011;34442;52.362;-1.302;2022-07-06T02:54:23;0.50;;;0.50;;
48651;SDS011;34442;52.362;-1.302;2022-07-06T02:56:49;1.02;;;0.70;;
48651;SDS011;34442;52.362;-1.302;2022-07-06T02:59:19;0.70;;;0.57;;
48651;SDS011;34442;52.362;-1.302;2022-07-06T03:01:45;0.85;;;0.70;;
48651;SDS011;34442;52.362;-1.302;2022-07-06T03:04:11;1.00;;;0.60;;
48651;SDS011;34442;52.362;-1.302;2022-07-06T03:06:37;0.45;;;0.45;;
48651;SDS011;34442;52.362;-1.302;2022-07-06T03:09:03;0.98;;;0.70;;
48651;SDS011;34442;52.362;-1.302;2022-07-06T03:11:29;1.75;;;1.10;;
48651;SDS011;34442;52.362;-1.302;2022-07-06T03:13:55;0.80;;;0.77;;
48651;SDS011;34442;52.362;-1.302;2022-07-06T03:16:21;0.60;;;0.60;;
48651;SDS011;34442;52.362;-1.302;2022-07-06T03:18:47;1.30;;;0.88;;
48651;SDS011;34442;52.362;-1.302;2022-07-06T03:21:13;1.38;;;0.77;;
48651;SDS011;34442;52.362;-1.302;2022-07-06T03:23:39;0.60;;;0.60;;
48651;SDS011;34442;52.362;-1.302;2022-07-06T03:26:05;2.03;;;1.00;;
48651;SDS011;34442;52.362;-1.302;2022-07-06T03:28:31;0.52;;;0.52;;
48651;SDS011;34442;52.362;-1.302;2022-07-06T03:30:57;0.68;;;0.60;;
48651;SDS011;34442;52.362;-1.302;2022-07-06T03:33:23;0.65;;;0.65;;
48651;SDS011;34442;52.362;-1.302;2022-07-06T03:35:49;1.35;;;0.70;;
48651;SDS011;34442;52.362;-1.302;2022-07-06T03:38:15;1.10;;;0.73;;
48651;SDS011;34442;52.362;-1.302;2022-07-06T03:40:41;1.33;;;0.80;;
48651;SDS011;34442;52.362;-1.302;2022-07-06T03:43:07;1.67;;;0.85;;
48651;SDS011;34442;52.362;-1.302;2022-07-06T03:45:33;1.65;;;0.75;;
48651;SDS011;34442;52.362;-1.302;2022-07-06T03:48:02;0.88;;;0.70;;
48651;SDS011;34442;52.362;-1.302;2022-07-06T03:50:28;0.68;;;0.52;;
48651;SDS011;34442;52.362;-1.302;2022-07-06T03:52:54;1.38;;;0.70;;
48651;SDS011;34442;52.362;-1.302;2022-07-06T03:55:20;1.52;;;0.80;;
48651;SDS011;34442;52.362;-1.302;2022-07-06T03:57:46;1.25;;;0.80;;
48651;SDS011;34442;52.362;-1.302;2022-07-06T04:00:13;2.03;;;0.93;;
48651;SDS011;34442;52.362;-1.302;2022-07-06T04:02:39;1.13;;;0.68;;
48651;SDS011;34442;52.362;-1.302;2022-07-06T04:05:06;1.65;;;0.70;;
48651;SDS011;34442;52.362;-1.302;2022-07-06T04:07:32;0.90;;;0.70;;
48651;SDS011;34442;52.362;-1.302;2022-07-06T04:09:58;1.15;;;0.68;;
48651;SDS011;34442;52.362;-1.302;2022-07-06T04:12:24;0.98;;;0.60;;
48651;SDS011;34442;52.362;-1.302;2022-07-06T04:14:50;1.10;;;0.63;;
48651;SDS011;34442;52.362;-1.302;2022-07-06T04:17:16;1.15;;;0.70;;
48651;SDS011;34442;52.362;-1.302;2022-07-06T04:20:01;1.10;;;0.80;;
48651;SDS011;34442;52.362;-1.302;2022-07-06T04:22:26;0.88;;;0.65;;
48651;SDS011;34442;52.362;-1.302;2022-07-06T04:24:52;0.95;;;0.80;;
48651;SDS011;34442;52.362;-1.302;2022-07-06T04:27:18;0.75;;;0.57;;
48651;SDS011;34442;52.362;-1.302;2022-07-06T04:29:44;0.77;;;0.63;;
48651;SDS011;34442;52.362;-1.302;2022-07-06T04:32:10;0.70;;;0.70;;
48651;SDS011;34442;52.362;-1.302;2022-07-06T04:34:36;1.60;;;0.80;;
48651;SDS011;34442;52.362;-1.302;2022-07-06T04:37:02;0.63;;;0.60;;
48651;SDS011;34442;52.362;-1.302;2022-07-06T04:39:28;1.30;;;0.73;;
48651;SDS011;34442;52.362;-1.302;2022-07-06T04:41:57;0.85;;;0.65;;
48651;SDS011;34442;52.362;-1.302;2022-07-06T04:44:23;1.05;;;0.70;;
48651;SDS011;34442;52.362;-1.302;2022-07-06T04:46:49;0.77;;;0.60;;
48651;SDS011;34442;52.362;-1.302;2022-07-06T04:49:15;0.60;;;0.60;;
48651;SDS011;34442;52.362;-1.302;2022-07-06T04:51:41;1.25;;;0.70;;
48651;SDS011;34442;52.362;-1.302;2022-07-06T04:54:07;1.55;;;0.75;;
48651;SDS011;34442;52.362;-1.302;2022-07-06T04:56:33;1.52;;;0.80;;
48651;SDS011;34442;52.362;-1.302;2022-07-06T04:58:59;0.88;;;0.70;;
48651;SDS011;34442;52.362;-1.302;2022-07-06T05:01:25;0.75;;;0.63;;
48651;SDS011;34442;52.362;-1.302;2022-07-06T05:03:51;1.02;;;0.70;;
48651;SDS011;34442;52.362;-1.302;2022-07-06T05:06:17;1.25;;;0.73;;
48651;SDS011;34442;52.362;-1.302;2022-07-06T05:08:45;1.05;;;0.70;;
48651;SDS011;34442;52.362;-1.302;2022-07-06T05:11:11;2.28;;;0.73;;
48651;SDS011;34442;52.362;-1.302;2022-07-06T05:13:37;0.88;;;0.60;;
48651;SDS011;34442;52.362;-1.302;2022-07-06T05:16:04;0.85;;;0.60;;
48651;SDS011;34442;52.362;-1.302;2022-07-06T05:18:30;1.02;;;0.70;;
48651;SDS011;34442;52.362;-1.302;2022-07-06T05:20:56;0.60;;;0.60;;
48651;SDS011;34442;52.362;-1.302;2022-07-06T05:23:22;0.65;;;0.60;;
48651;SDS011;34442;52.362;-1.302;2022-07-06T05:25:48;1.48;;;0.65;;
48651;SDS011;34442;52.362;-1.302;2022-07-06T05:28:14;0.43;;;0.43;;
48651;SDS011;34442;52.362;-1.302;2022-07-06T05:30:40;1.15;;;0.80;;
48651;SDS011;34442;52.362;-1.302;2022-07-06T05:33:06;1.45;;;0.90;;
48651;SDS011;34442;52.362;-1.302;2022-07-06T05:35:32;1.05;;;0.70;;
48651;SDS011;34442;52.362;-1.302;2022-07-06T05:37:58;0.60;;;0.60;;
48651;SDS011;34442;52.362;-1.302;2022-07-06T05:40:24;0.50;;;0.50;;
48651;SDS011;34442;52.362;-1.302;2022-07-06T05:42:50;0.90;;;0.60;;
48651;SDS011;34442;52.362;-1.302;2022-07-06T05:45:16;0.75;;;0.52;;
48651;SDS011;34442;52.362;-1.302;2022-07-06T05:47:42;0.88;;;0.65;;
48651;SDS011;34442;52.362;-1.302;2022-07-06T05:50:27;0.55;;;0.55;;
48651;SDS011;34442;52.362;-1.302;2022-07-06T05:52:57;0.50;;;0.50;;
48651;SDS011;34442;52.362;-1.302;2022-07-06T05:55:25;1.63;;;0.88;;
48651;SDS011;34442;52.362;-1.302;2022-07-06T05:57:52;1.00;;;0.85;;
48651;SDS011;34442;52.362;-1.302;2022-07-06T06:00:20;1.13;;;0.80;;
48651;SDS011;34442;52.362;-1.302;2022-07-06T06:02:47;1.10;;;0.85;;
48651;SDS011;34442;52.362;-1.302;2022-07-06T06:05:13;0.70;;;0.70;;
48651;SDS011;34442;52.362;-1.302;2022-07-06T06:07:41;0.60;;;0.60;;
48651;SDS011;34442;52.362;-1.302;2022-07-06T06:10:08;0.50;;;0.50;;
48651;SDS011;34442;52.362;-1.302;2022-07-06T06:12:36;1.35;;;0.70;;
48651;SDS011;34442;52.362;-1.302;2022-07-06T06:15:02;0.75;;;0.70;;
48651;SDS011;34442;52.362;-1.302;2022-07-06T06:17:30;1.02;;;0.82;;
48651;SDS011;34442;52.362;-1.302;2022-07-06T06:19:56;1.63;;;0.90;;
48651;SDS011;34442;52.362;-1.302;2022-07-06T06:22:23;1.45;;;0.80;;
48651;SDS011;34442;52.362;-1.302;2022-07-06T06:24:49;0.73;;;0.60;;
48651;SDS011;34442;52.362;-1.302;2022-07-06T06:27:15;1.05;;;0.80;;
48651;SDS011;34442;52.362;-1.302;2022-07-06T06:29:41;1.42;;;0.70;;
48651;SDS011;34442;52.362;-1.302;2022-07-06T06:32:12;0.70;;;0.70;;
48651;SDS011;34442;52.362;-1.302;2022-07-06T06:34:39;0.80;;;0.70;;
48651;SDS011;34442;52.362;-1.302;2022-07-06T06:37:05;0.77;;;0.70;;
48651;SDS011;34442;52.362;-1.302;2022-07-06T06:39:31;0.73;;;0.60;;
48651;SDS011;34442;52.362;-1.302;2022-07-06T06:41:58;0.73;;;0.73;;
48651;SDS011;34442;52.362;-1.302;2022-07-06T06:44:24;1.20;;;0.80;;
48651;SDS011;34442;52.362;-1.302;2022-07-06T06:46:50;2.35;;;0.88;;
48651;SDS011;34442;52.362;-1.302;2022-07-06T06:49:17;0.98;;;0.77;;
48651;SDS011;34442;52.362;-1.302;2022-07-06T06:51:44;1.30;;;0.73;;
48651;SDS011;34442;52.362;-1.302;2022-07-06T06:54:10;0.75;;;0.60;;
48651;SDS011;34442;52.362;-1.302;2022-07-06T06:56:36;1.00;;;0.80;;
48651;SDS011;34442;52.362;-1.302;2022-07-06T06:59:03;1.10;;;0.70;;
48651;SDS011;34442;52.362;-1.302;2022-07-06T07:01:29;0.95;;;0.60;;
48651;SDS011;34442;52.362;-1.302;2022-07-06T07:03:55;0.60;;;0.60;;
48651;SDS011;34442;52.362;-1.302;2022-07-06T07:06:21;0.80;;;0.60;;
48651;SDS011;34442;52.362;-1.302;2022-07-06T07:08:47;0.52;;;0.50;;
48651;SDS011;34442;52.362;-1.302;2022-07-06T07:11:14;0.75;;;0.65;;
48651;SDS011;34442;52.362;-1.302;2022-07-06T07:13:40;0.93;;;0.80;;
48651;SDS011;34442;52.362;-1.302;2022-07-06T07:16:06;0.68;;;0.60;;
48651;SDS011;34442;52.362;-1.302;2022-07-06T07:18:32;0.90;;;0.70;;
48651;SDS011;34442;52.362;-1.302;2022-07-06T07:20:58;0.80;;;0.68;;
48651;SDS011;34442;52.362;-1.302;2022-07-06T07:23:24;0.70;;;0.70;;
48651;SDS011;34442;52.362;-1.302;2022-07-06T07:25:50;1.42;;;0.80;;
48651;SDS011;34442;52.362;-1.302;2022-07-06T07:28:16;0.88;;;0.60;;
48651;SDS011;34442;52.362;-1.302;2022-07-06T07:30:42;1.20;;;0.90;;
48651;SDS011;34442;52.362;-1.302;2022-07-06T07:33:09;1.10;;;0.80;;
48651;SDS011;34442;52.362;-1.302;2022-07-06T07:35:35;0.90;;;0.70;;
48651;SDS011;34442;52.362;-1.302;2022-07-06T07:38:01;1.02;;;0.68;;
48651;SDS011;34442;52.362;-1.302;2022-07-06T07:40:27;0.82;;;0.70;;
48651;SDS011;34442;52.362;-1.302;2022-07-06T07:42:53;0.60;;;0.60;;
48651;SDS011;34442;52.362;-1.302;2022-07-06T07:45:19;1.13;;;0.80;;
48651;SDS011;34442;52.362;-1.302;2022-07-06T07:47:45;1.13;;;0.82;;
48651;SDS011;34442;52.362;-1.302;2022-07-06T07:50:11;0.73;;;0.60;;
48651;SDS011;34442;52.362;-1.302;2022-07-06T07:52:38;1.23;;;0.70;;
48651;SDS011;34442;52.362;-1.302;2022-07-06T07:55:04;1.08;;;0.70;;
48651;SDS011;34442;52.362;-1.302;2022-07-06T07:57:30;1.23;;;0.52;;
48651;SDS011;34442;52.362;-1.302;2022-07-06T07:59:56;0.77;;;0.65;;
48651;SDS011;34442;52.362;-1.302;2022-07-06T08:02:22;0.70;;;0.63;;
48651;SDS011;34442;52.362;-1.302;2022-07-06T08:04:49;1.00;;;0.82;;
48651;SDS011;34442;52.362;-1.302;2022-07-06T08:07:15;0.63;;;0.60;;
48651;SDS011;34442;52.362;-1.302;2022-07-06T08:09:41;0.82;;;0.70;;
48651;SDS011;34442;52.362;-1.302;2022-07-06T08:12:07;1.05;;;0.60;;
48651;SDS011;34442;52.362;-1.302;2022-07-06T08:14:33;0.60;;;0.57;;
48651;SDS011;34442;52.362;-1.302;2022-07-06T08:17:00;0.55;;;0.50;;
48651;SDS011;34442;52.362;-1.302;2022-07-06T08:19:26;1.27;;;0.80;;
48651;SDS011;34442;52.362;-1.302;2022-07-06T08:21:52;1.20;;;0.70;;
48651;SDS011;34442;52.362;-1.302;2022-07-06T08:24:18;0.75;;;0.60;;
48651;SDS011;34442;52.362;-1.302;2022-07-06T08:26:45;0.70;;;0.70;;
48651;SDS011;34442;52.362;-1.302;2022-07-06T08:29:11;1.65;;;0.82;;
48651;SDS011;34442;52.362;-1.302;2022-07-06T08:31:37;0.70;;;0.57;;
48651;SDS011;34442;52.362;-1.302;2022-07-06T08:34:03;0.98;;;0.70;;
48651;SDS011;34442;52.362;-1.302;2022-07-06T08:36:29;0.60;;;0.50;;
48651;SDS011;34442;52.362;-1.302;2022-07-06T08:38:55;0.45;;;0.40;;
48651;SDS011;34442;52.362;-1.302;2022-07-06T08:41:23;0.55;;;0.43;;
48651;SDS011;34442;52.362;-1.302;2022-07-06T08:43:50;0.30;;;0.30;;
48651;SDS011;34442;52.362;-1.302;2022-07-06T08:46:17;0.98;;;0.60;;
48651;SDS011;34442;52.362;-1.302;2022-07-06T08:48:44;0.47;;;0.40;;
48651;SDS011;34442;52.362;-1.302;2022-07-06T08:51:12;0.50;;;0.50;;
48651;SDS011;34442;52.362;-1.302;2022-07-06T08:53:42;0.57;;;0.40;;
48651;SDS011;34442;52.362;-1.302;2022-07-06T08:56:09;1.05;;;0.60;;
48651;SDS011;34442;52.362;-1.302;2022-07-06T08:58:36;0.52;;;0.52;;
48651;SDS011;34442;52.362;-1.302;2022-07-06T09:01:06;1.25;;;0.77;;
48651;SDS011;34442;52.362;-1.302;2022-07-06T09:03:35;1.45;;;0.52;;
48651;SDS011;34442;52.362;-1.302;2022-07-06T09:06:02;0.40;;;0.40;;
48651;SDS011;34442;52.362;-1.302;2022-07-06T09:08:29;0.50;;;0.50;;
48651;SDS011;34442;52.362;-1.302;2022-07-06T09:10:57;1.17;;;0.60;;
48651;SDS011;34442;52.362;-1.302;2022-07-06T09:13:23;1.35;;;0.73;;
48651;SDS011;34442;52.362;-1.302;2022-07-06T09:15:49;0.30;;;0.30;;
48651;SDS011;34442;52.362;-1.302;2022-07-06T09:18:15;0.85;;;0.75;;
48651;SDS011;34442;52.362;-1.302;2022-07-06T09:20:41;0.57;;;0.50;;
48651;SDS011;34442;52.362;-1.302;2022-07-06T09:23:07;0.47;;;0.40;;
48651;SDS011;34442;52.362;-1.302;2022-07-06T09:25:34;1.25;;;0.50;;
48651;SDS011;34442;52.362;-1.302;2022-07-06T09:28:01;0.90;;;0.47;;
48651;SDS011;34442;52.362;-1.302;2022-07-06T09:30:28;1.00;;;0.60;;
48651;SDS011;34442;52.362;-1.302;2022-07-06T09:32:55;0.40;;;0.35;;
48651;SDS011;34442;52.362;-1.302;2022-07-06T09:37:59;0.43;;;0.40;;
48651;SDS011;34442;52.362;-1.302;2022-07-06T09:40:27;0.73;;;0.47;;
48651;SDS011;34442;52.362;-1.302;2022-07-06T09:45:43;0.50;;;0.50;;
48651;SDS011;34442;52.362;-1.302;2022-07-06T09:50:40;0.40;;;0.40;;
48651;SDS011;34442;52.362;-1.302;2022-07-06T09:53:07;0.80;;;0.50;;
48651;SDS011;34442;52.362;-1.302;2022-07-06T09:55:33;0.40;;;0.40;;
48651;SDS011;34442;52.362;-1.302;2022-07-06T09:57:59;0.63;;;0.45;;
48651;SDS011;34442;52.362;-1.302;2022-07-06T10:00:25;0.68;;;0.60;;
48651;SDS011;34442;52.362;-1.302;2022-07-06T10:02:51;1.17;;;0.77;;
48651;SDS011;34442;52.362;-1.302;2022-07-06T10:05:19;0.73;;;0.50;;
48651;SDS011;34442;52.362;-1.302;2022-07-06T10:07:52;0.40;;;0.40;;
48651;SDS011;34442;52.362;-1.302;2022-07-06T10:10:24;0.57;;;0.50;;
48651;SDS011;34442;52.362;-1.302;2022-07-06T10:12:55;1.00;;;0.60;;
48651;SDS011;34442;52.362;-1.302;2022-07-06T10:15:25;0.75;;;0.60;;
48651;SDS011;34442;52.362;-1.302;2022-07-06T10:17:53;1.08;;;0.68;;
48651;SDS011;34442;52.362;-1.302;2022-07-06T10:20:22;0.35;;;0.35;;
48651;SDS011;34442;52.362;-1.302;2022-07-06T10:22:48;0.68;;;0.68;;
48651;SDS011;34442;52.362;-1.302;2022-07-06T10:25:16;0.50;;;0.50;;
48651;SDS011;34442;52.362;-1.302;2022-07-06T10:27:44;1.00;;;0.63;;
48651;SDS011;34442;52.362;-1.302;2022-07-06T10:30:12;2.88;;;0.88;;
48651;SDS011;34442;52.362;-1.302;2022-07-06T10:32:39;1.02;;;0.63;;
48651;SDS011;34442;52.362;-1.302;2022-07-06T10:35:07;0.77;;;0.57;;
48651;SDS011;34442;52.362;-1.302;2022-07-06T10:37:34;0.90;;;0.55;;
48651;SDS011;34442;52.362;-1.302;2022-07-06T10:40:03;0.75;;;0.70;;
48651;SDS011;34442;52.362;-1.302;2022-07-06T10:42:49;0.98;;;0.60;;
48651;SDS011;34442;52.362;-1.302;2022-07-06T10:50:38;0.50;;;0.47;;
48651;SDS011;34442;52.362;-1.302;2022-07-06T10:53:15;1.13;;;0.63;;
48651;SDS011;34442;52.362;-1.302;2022-07-06T10:55:48;0.50;;;0.50;;
48651;SDS011;34442;52.362;-1.302;2022-07-06T10:58:35;0.77;;;0.60;;
48651;SDS011;34442;52.362;-1.302;2022-07-06T11:01:17;1.58;;;0.70;;
48651;SDS011;34442;52.362;-1.302;2022-07-06T11:03:50;0.63;;;0.50;;
48651;SDS011;34442;52.362;-1.302;2022-07-06T11:06:35;0.55;;;0.55;;
48651;SDS011;34442;52.362;-1.302;2022-07-06T11:14:03;0.43;;;0.40;;
48651;SDS011;34442;52.362;-1.302;2022-07-06T11:16:33;0.60;;;0.40;;
48651;SDS011;34442;52.362;-1.302;2022-07-06T11:21:32;0.30;;;0.30;;
48651;SDS011;34442;52.362;-1.302;2022-07-06T11:23:58;1.10;;;0.60;;
48651;SDS011;34442;52.362;-1.302;2022-07-06T11:26:24;1.50;;;0.60;;
48651;SDS011;34442;52.362;-1.302;2022-07-06T11:28:50;0.20;;;0.20;;
48651;SDS011;34442;52.362;-1.302;2022-07-06T11:31:17;0.20;;;0.20;;
48651;SDS011;34442;52.362;-1.302;2022-07-06T11:33:46;0.20;;;0.20;;
48651;SDS011;34442;52.362;-1.302;2022-07-06T11:36:15;0.40;;;0.40;;
48651;SDS011;34442;52.362;-1.302;2022-07-06T11:38:41;0.35;;;0.30;;
48651;SDS011;34442;52.362;-1.302;2022-07-06T11:41:08;0.30;;;0.30;;
48651;SDS011;34442;52.362;-1.302;2022-07-06T11:43:37;0.28;;;0.20;;
48651;SDS011;34442;52.362;-1.302;2022-07-06T11:46:05;0.55;;;0.35;;
48651;SDS011;34442;52.362;-1.302;2022-07-06T11:48:31;0.68;;;0.40;;
48651;SDS011;34442;52.362;-1.302;2022-07-06T11:51:00;0.20;;;0.20;;
48651;SDS011;34442;52.362;-1.302;2022-07-06T11:53:26;0.40;;;0.28;;
48651;SDS011;34442;52.362;-1.302;2022-07-06T11:55:53;0.38;;;0.38;;
48651;SDS011;34442;52.362;-1.302;2022-07-06T11:58:22;0.20;;;0.20;;
48651;SDS011;34442;52.362;-1.302;2022-07-06T12:01:05;0.30;;;0.30;;
48651;SDS011;34442;52.362;-1.302;2022-07-06T12:03:32;0.60;;;0.30;;
48651;SDS011;34442;52.362;-1.302;2022-07-06T12:06:03;0.55;;;0.43;;
48651;SDS011;34442;52.362;-1.302;2022-07-06T12:08:32;0.45;;;0.30;;
48651;SDS011;34442;52.362;-1.302;2022-07-06T12:11:05;0.20;;;0.20;;
48651;SDS011;34442;52.362;-1.302;2022-07-06T12:13:35;0.40;;;0.40;;
48651;SDS011;34442;52.362;-1.302;2022-07-06T12:16:09;0.20;;;0.20;;
48651;SDS011;34442;52.362;-1.302;2022-07-06T12:18:36;0.55;;;0.32;;
48651;SDS011;34442;52.362;-1.302;2022-07-06T12:21:03;0.30;;;0.30;;
48651;SDS011;34442;52.362;-1.302;2022-07-06T12:26:26;2.22;;;0.45;;
48651;SDS011;34442;52.362;-1.302;2022-07-06T12:28:59;0.68;;;0.40;;
48651;SDS011;34442;52.362;-1.302;2022-07-06T12:31:36;1.05;;;0.57;;
48651;SDS011;34442;52.362;-1.302;2022-07-06T12:34:03;1.45;;;0.50;;
48651;SDS011;34442;52.362;-1.302;2022-07-06T12:36:30;0.50;;;0.40;;
48651;SDS011;34442;52.362;-1.302;2022-07-06T12:38:57;0.63;;;0.47;;
48651;SDS011;34442;52.362;-1.302;2022-07-06T12:41:24;0.55;;;0.40;;
48651;SDS011;34442;52.362;-1.302;2022-07-06T12:44:02;0.52;;;0.50;;
48651;SDS011;34442;52.362;-1.302;2022-07-06T12:51:56;0.75;;;0.43;;
48651;SDS011;34442;52.362;-1.302;2022-07-06T12:54:30;0.32;;;0.32;;
48651;SDS011;34442;52.362;-1.302;2022-07-06T12:59:39;0.40;;;0.40;;
48651;SDS011;34442;52.362;-1.302;2022-07-06T13:02:16;0.35;;;0.28;;
48651;SDS011;34442;52.362;-1.302;2022-07-06T13:07:23;0.20;;;0.20;;
48651;SDS011;34442;52.362;-1.302;2022-07-06T13:09:49;0.60;;;0.40;;
48651;SDS011;34442;52.362;-1.302;2022-07-06T13:12:15;1.08;;;0.40;;
48651;SDS011;34442;52.362;-1.302;2022-07-06T13:14:41;0.80;;;0.50;;
48651;SDS011;34442;52.362;-1.302;2022-07-06T13:17:07;0.45;;;0.40;;
48651;SDS011;34442;52.362;-1.302;2022-07-06T13:19:33;0.63;;;0.50;;
48651;SDS011;34442;52.362;-1.302;2022-07-06T13:21:59;0.68;;;0.40;;
48651;SDS011;34442;52.362;-1.302;2022-07-06T13:24:25;1.35;;;0.38;;
48651;SDS011;34442;52.362;-1.302;2022-07-06T13:26:54;0.50;;;0.50;;
48651;SDS011;34442;52.362;-1.302;2022-07-06T13:29:21;0.70;;;0.57;;
48651;SDS011;34442;52.362;-1.302;2022-07-06T13:31:47;0.45;;;0.43;;
48651;SDS011;34442;52.362;-1.302;2022-07-06T13:34:13;0.68;;;0.50;;
48651;SDS011;34442;52.362;-1.302;2022-07-06T13:36:39;0.25;;;0.25;;
48651;SDS011;34442;52.362;-1.302;2022-07-06T13:39:06;0.80;;;0.50;;
48651;SDS011;34442;52.362;-1.302;2022-07-06T13:41:32;0.80;;;0.40;;
48651;SDS011;34442;52.362;-1.302;2022-07-06T13:43:59;0.50;;;0.50;;
48651;SDS011;34442;52.362;-1.302;2022-07-06T13:46:29;0.45;;;0.40;;
48651;SDS011;34442;52.362;-1.302;2022-07-06T13:48:56;0.50;;;0.30;;
48651;SDS011;34442;52.362;-1.302;2022-07-06T13:51:23;0.98;;;0.55;;
48651;SDS011;34442;52.362;-1.302;2022-07-06T13:53:50;0.52;;;0.50;;
48651;SDS011;34442;52.362;-1.302;2022-07-06T13:56:16;0.40;;;0.40;;
48651;SDS011;34442;52.362;-1.302;2022-07-06T13:58:43;0.43;;;0.35;;
48651;SDS011;34442;52.362;-1.302;2022-07-06T14:01:09;1.67;;;0.47;;
48651;SDS011;34442;52.362;-1.302;2022-07-06T14:03:36;1.35;;;0.68;;
48651;SDS011;34442;52.362;-1.302;2022-07-06T14:06:03;0.73;;;0.35;;
48651;SDS011;34442;52.362;-1.302;2022-07-06T14:08:34;1.83;;;0.60;;
48651;SDS011;34442;52.362;-1.302;2022-07-06T14:11:01;0.90;;;0.40;;
48651;SDS011;34442;52.362;-1.302;2022-07-06T14:13:28;1.05;;;0.43;;
48651;SDS011;34442;52.362;-1.302;2022-07-06T14:15:55;0.52;;;0.40;;
48651;SDS011;34442;52.362;-1.302;2022-07-06T14:18:21;0.40;;;0.40;;
48651;SDS011;34442;52.362;-1.302;2022-07-06T14:20:48;1.48;;;0.82;;
48651;SDS011;34442;52.362;-1.302;2022-07-06T14:23:15;0.30;;;0.30;;
48651;SDS011;34442;52.362;-1.302;2022-07-06T14:25:42;0.82;;;0.50;;
48651;SDS011;34442;52.362;-1.302;2022-07-06T14:28:11;0.50;;;0.40;;
48651;SDS011;34442;52.362;-1.302;2022-07-06T14:30:45;0.50;;;0.50;;
48651;SDS011;34442;52.362;-1.302;2022-07-06T14:33:12;1.00;;;0.47;;
48651;SDS011;34442;52.362;-1.302;2022-07-06T14:35:41;1.10;;;0.52;;
48651;SDS011;34442;52.362;-1.302;2022-07-06T14:38:09;0.50;;;0.38;;
48651;SDS011;34442;52.362;-1.302;2022-07-06T14:40:35;1.02;;;0.52;;
48651;SDS011;34442;52.362;-1.302;2022-07-06T14:43:02;3.15;;;0.63;;
48651;SDS011;34442;52.362;-1.302;2022-07-06T14:45:29;0.52;;;0.52;;
48651;SDS011;34442;52.362;-1.302;2022-07-06T14:47:55;0.60;;;0.60;;
48651;SDS011;34442;52.362;-1.302;2022-07-06T14:50:22;1.60;;;0.95;;
48651;SDS011;34442;52.362;-1.302;2022-07-06T14:52:51;3.10;;;0.80;;
48651;SDS011;34442;52.362;-1.302;2022-07-06T14:55:18;0.63;;;0.60;;
48651;SDS011;34442;52.362;-1.302;2022-07-06T14:57:45;0.80;;;0.50;;
48651;SDS011;34442;52.362;-1.302;2022-07-06T15:00:12;2.60;;;0.90;;
48651;SDS011;34442;52.362;-1.302;2022-07-06T15:02:39;1.17;;;0.70;;
48651;SDS011;34442;52.362;-1.302;2022-07-06T15:05:07;2.92;;;1.15;;
48651;SDS011;34442;52.362;-1.302;2022-07-06T15:07:34;1.58;;;0.80;;